createdAt,value
2022-07-30T00:02:10.390Z,100933.45
2022-07-30T00:04:38.224Z,100927.79
2022-07-30T00:07:06.106Z,100927.06
2022-07-30T00:09:34.419Z,100922.98
2022-07-30T00:12:05.690Z,100928.81
2022-07-30T00:14:35.022Z,100925.80
2022-07-30T00:17:04.463Z,100932.30
2022-07-30T00:19:33.111Z,100937.98
2022-07-30T00:22:01.370Z,100940.10
2022-07-30T00:24:29.426Z,100941.85
2022-07-30T00:26:57.380Z,100937.80
2022-07-30T00:29:25.807Z,100932.69
2022-07-30T00:31:53.510Z,100925.96
2022-07-30T00:34:21.220Z,100928.75
2022-07-30T00:36:49.039Z,100923.45
2022-07-30T00:39:16.863Z,100920.80
2022-07-30T00:41:55.699Z,100920.40
2022-07-30T00:44:23.484Z,100920.41
2022-07-30T00:46:52.390Z,100920.22
2022-07-30T00:49:21.825Z,100916.67
2022-07-30T00:51:49.676Z,100912.43
2022-07-30T00:54:17.622Z,100910.28
2022-07-30T00:56:45.546Z,100905.33
2022-07-30T00:59:13.537Z,100903.55
2022-07-30T01:01:41.418Z,100900.00
2022-07-30T01:04:11.854Z,100905.11
2022-07-30T01:06:40.598Z,100906.48
2022-07-30T01:09:08.885Z,100905.90
2022-07-30T01:11:38.951Z,100907.84
2022-07-30T01:14:08.664Z,100904.80
2022-07-30T01:16:39.893Z,100901.05
2022-07-30T01:19:43.384Z,100895.36
2022-07-30T01:22:18.517Z,100887.77
2022-07-30T01:25:06.568Z,100881.94
2022-07-30T01:27:38.745Z,100878.21
2022-07-30T01:30:08.683Z,100874.49
2022-07-30T01:32:40.419Z,100871.64
2022-07-30T01:35:11.108Z,100867.76
2022-07-30T01:37:40.346Z,100869.16
2022-07-30T01:40:09.475Z,100871.11
2022-07-30T01:42:38.345Z,100874.06
2022-07-30T01:45:09.168Z,100881.84
2022-07-30T01:47:39.924Z,100885.20
2022-07-30T01:50:13.795Z,100889.59
2022-07-30T01:52:47.401Z,100890.44
2022-07-30T01:55:22.120Z,100883.58
2022-07-30T01:57:51.452Z,100884.62
2022-07-30T02:00:19.302Z,100884.59
2022-07-30T02:02:47.064Z,100877.52
2022-07-30T02:05:14.799Z,100878.76
2022-07-30T02:08:01.157Z,100878.92
2022-07-30T02:10:31.558Z,100886.00
2022-07-30T02:13:01.949Z,100888.10
2022-07-30T02:15:52.691Z,100881.02
2022-07-30T02:18:32.347Z,100879.05
2022-07-30T02:21:11.524Z,100874.97
2022-07-30T02:23:43.556Z,100870.39
2022-07-30T02:26:18.675Z,100863.69
2022-07-30T02:28:51.451Z,100862.63
2022-07-30T02:31:23.532Z,100862.07
2022-07-30T02:33:54.889Z,100867.52
2022-07-30T02:36:25.407Z,100865.60
2022-07-30T02:38:54.024Z,100863.80
2022-07-30T02:41:25.256Z,100859.88
2022-07-30T02:43:54.840Z,100860.78
2022-07-30T02:46:25.194Z,100858.32
2022-07-30T02:48:55.246Z,100855.84
2022-07-30T02:51:24.857Z,100850.36
2022-07-30T02:53:55.361Z,100848.77
2022-07-30T02:56:24.809Z,100840.13
2022-07-30T02:58:54.416Z,100832.54
2022-07-30T03:01:23.738Z,100830.93
2022-07-30T03:03:52.574Z,100829.67
2022-07-30T03:06:24.303Z,100828.29
2022-07-30T03:08:53.790Z,100824.05
2022-07-30T03:11:24.211Z,100826.37
2022-07-30T03:13:51.950Z,100823.55
2022-07-30T03:16:22.470Z,100821.79
2022-07-30T03:18:53.495Z,100818.27
2022-07-30T03:21:26.027Z,100818.63
2022-07-30T03:23:57.171Z,100819.13
2022-07-30T03:26:27.008Z,100814.54
2022-07-30T03:28:55.008Z,100804.66
2022-07-30T03:31:23.353Z,100803.58
2022-07-30T03:33:56.850Z,100798.10
2022-07-30T03:36:25.812Z,100798.46
2022-07-30T03:38:54.673Z,100804.98
2022-07-30T03:41:23.549Z,100807.26
2022-07-30T03:43:52.092Z,100804.63
2022-07-30T03:46:20.350Z,100805.52
2022-07-30T03:48:48.989Z,100810.29
2022-07-30T03:51:17.965Z,100811.35
2022-07-30T03:53:46.759Z,100811.00
2022-07-30T03:56:15.340Z,100812.98
2022-07-30T03:58:43.157Z,100810.17
2022-07-30T04:01:11.036Z,100813.88
2022-07-30T04:03:39.097Z,100814.41
2022-07-30T04:06:06.851Z,100812.13
2022-07-30T04:08:34.652Z,100814.45
2022-07-30T04:11:02.416Z,100821.35
2022-07-30T04:13:30.599Z,100823.98
2022-07-30T04:16:40.996Z,100819.23
2022-07-30T04:19:13.115Z,100824.54
2022-07-30T04:21:42.257Z,100825.96
2022-07-30T04:24:11.751Z,100824.20
2022-07-30T04:26:39.804Z,100828.25
2022-07-30T04:29:16.728Z,100828.98
2022-07-30T04:31:47.235Z,100827.59
2022-07-30T04:34:15.857Z,100828.46
2022-07-30T04:36:44.334Z,100824.61
2022-07-30T04:39:13.092Z,100823.02
2022-07-30T04:41:49.173Z,100816.34
2022-07-30T04:44:19.674Z,100819.52
2022-07-30T04:46:48.277Z,100818.83
2022-07-30T04:49:19.071Z,100814.08
2022-07-30T04:51:48.076Z,100809.14
2022-07-30T04:54:17.047Z,100808.65
2022-07-30T04:56:52.470Z,100803.20
2022-07-30T04:59:29.102Z,100804.63
2022-07-30T05:02:00.141Z,100806.58
2022-07-30T05:04:29.363Z,100808.52
2022-07-30T05:06:58.887Z,100807.14
2022-07-30T05:09:28.462Z,100802.73
2022-07-30T05:11:57.760Z,100804.17
2022-07-30T05:14:27.003Z,100804.20
2022-07-30T05:16:55.076Z,100801.52
2022-07-30T05:19:23.811Z,100802.41
2022-07-30T05:21:51.931Z,100806.17
2022-07-30T05:24:19.865Z,100807.42
2022-07-30T05:26:48.268Z,100810.42
2022-07-30T05:29:20.082Z,100808.49
2022-07-30T05:31:49.048Z,100804.27
2022-07-30T05:34:17.160Z,100804.96
2022-07-30T05:36:45.468Z,100805.00
2022-07-30T05:39:13.939Z,100804.85
2022-07-30T05:41:41.735Z,100806.27
2022-07-30T05:44:09.670Z,100806.82
2022-07-30T05:46:37.783Z,100810.55
2022-07-30T05:49:06.681Z,100808.30
2022-07-30T05:51:34.645Z,100809.17
2022-07-30T05:54:02.404Z,100810.27
2022-07-30T05:56:30.137Z,100813.80
2022-07-30T05:58:58.033Z,100814.91
2022-07-30T06:01:25.800Z,100811.39
2022-07-30T06:03:53.627Z,100810.52
2022-07-30T06:06:23.262Z,100813.89
2022-07-30T06:08:51.508Z,100813.73
2022-07-30T06:11:19.565Z,100813.74
2022-07-30T06:13:47.449Z,100814.45
2022-07-30T06:16:15.267Z,100812.35
2022-07-30T06:18:43.165Z,100818.37
2022-07-30T06:21:11.141Z,100818.92
2022-07-30T06:23:38.887Z,100819.31
2022-07-30T06:26:06.881Z,100821.62
2022-07-30T06:28:38.029Z,100817.39
2022-07-30T06:31:07.848Z,100821.63
2022-07-30T06:33:35.752Z,100816.15
2022-07-30T06:36:03.970Z,100818.45
2022-07-30T06:38:31.872Z,100815.80
2022-07-30T06:41:02.815Z,100819.16
2022-07-30T06:43:32.523Z,100819.52
2022-07-30T06:46:00.995Z,100817.21
2022-07-30T06:48:31.869Z,100815.98
2022-07-30T06:50:59.573Z,100814.20
2022-07-30T06:53:27.687Z,100816.49
2022-07-30T06:55:58.359Z,100814.55
2022-07-30T06:58:28.774Z,100813.64
2022-07-30T07:00:56.599Z,100814.70
2022-07-30T07:03:26.375Z,100818.26
2022-07-30T07:06:07.782Z,100818.42
2022-07-30T07:08:37.302Z,100816.64
2022-07-30T07:11:05.188Z,100815.55
2022-07-30T07:13:32.944Z,100815.35
2022-07-30T07:16:00.778Z,100811.61
2022-07-30T07:18:28.585Z,100811.60
2022-07-30T07:20:56.389Z,100810.89
2022-07-30T07:23:24.472Z,100809.77
2022-07-30T07:25:52.243Z,100812.58
2022-07-30T07:28:19.995Z,100811.81
2022-07-30T07:30:48.025Z,100805.62
2022-07-30T07:33:16.487Z,100805.60
2022-07-30T07:35:49.819Z,100802.05
2022-07-30T07:38:18.581Z,100801.15
2022-07-30T07:40:47.411Z,100799.15
2022-07-30T07:43:16.142Z,100801.19
2022-07-30T07:45:44.314Z,100796.41
2022-07-30T07:48:12.726Z,100793.41
2022-07-30T07:50:41.944Z,100793.39
2022-07-30T07:53:09.705Z,100793.15
2022-07-30T07:55:37.656Z,100789.73
2022-07-30T07:58:05.673Z,100793.78
2022-07-30T08:00:33.527Z,100793.61
2022-07-30T08:03:01.354Z,100790.45
2022-07-30T08:05:55.896Z,100789.20
2022-07-30T08:08:16.948Z,100792.16
2022-07-30T08:10:44.930Z,100790.38
2022-07-30T08:13:49.243Z,100793.75
2022-07-30T08:16:02.898Z,100787.19
2022-07-30T08:18:30.759Z,100788.06
2022-07-30T08:20:58.528Z,100787.35
2022-07-30T08:23:26.229Z,100786.93
2022-07-30T08:25:53.970Z,100787.39
2022-07-30T08:28:36.465Z,100786.45
2022-07-30T08:31:04.969Z,100783.61
2022-07-30T08:33:32.908Z,100780.08
2022-07-30T08:36:04.145Z,100779.16
2022-07-30T08:38:39.117Z,100780.38
2022-07-30T08:41:07.730Z,100776.13
2022-07-30T08:43:36.689Z,100776.48
2022-07-30T08:46:09.384Z,100775.75
2022-07-30T08:48:37.633Z,100770.96
2022-07-30T08:51:05.742Z,100768.66
2022-07-30T08:53:34.891Z,100771.67
2022-07-30T08:56:04.620Z,100772.73
2022-07-30T08:58:37.014Z,100770.57
2022-07-30T09:01:06.296Z,100774.34
2022-07-30T09:03:35.238Z,100770.27
2022-07-30T09:06:04.806Z,100772.45
2022-07-30T09:08:33.010Z,100774.77
2022-07-30T09:11:00.989Z,100778.55
2022-07-30T09:13:35.425Z,100776.98
2022-07-30T09:16:05.444Z,100772.89
2022-07-30T09:18:41.094Z,100775.38
2022-07-30T09:21:20.992Z,100772.36
2022-07-30T09:24:20.188Z,100776.77
2022-07-30T09:27:06.946Z,100774.31
2022-07-30T09:29:36.292Z,100774.11
2022-07-30T09:32:07.204Z,100775.69
2022-07-30T09:34:37.324Z,100773.71
2022-07-30T09:37:19.373Z,100772.63
2022-07-30T09:39:59.356Z,100770.30
2022-07-30T09:42:29.179Z,100770.11
2022-07-30T09:45:14.856Z,100768.66
2022-07-30T09:47:45.008Z,100772.96
2022-07-30T09:50:17.880Z,100772.83
2022-07-30T09:53:07.354Z,100770.19
2022-07-30T09:55:41.094Z,100775.98
2022-07-30T09:58:12.633Z,100774.88
2022-07-30T10:00:45.917Z,100773.42
2022-07-30T10:03:33.667Z,100772.82
2022-07-30T10:06:11.318Z,100774.30
2022-07-30T10:08:51.796Z,100771.52
2022-07-30T10:11:26.176Z,100770.47
2022-07-30T10:14:01.697Z,100766.41
2022-07-30T10:16:30.593Z,100767.48
2022-07-30T10:19:00.303Z,100765.35
2022-07-30T10:21:32.616Z,100764.83
2022-07-30T10:24:06.773Z,100760.96
2022-07-30T10:26:35.243Z,100758.13
2022-07-30T10:29:04.169Z,100759.19
2022-07-30T10:31:47.082Z,100762.55
2022-07-30T10:34:23.964Z,100766.62
2022-07-30T10:37:01.764Z,100765.55
2022-07-30T10:39:38.103Z,100771.73
2022-07-30T10:42:27.615Z,100774.58
2022-07-30T10:44:58.194Z,100780.25
2022-07-30T10:47:33.553Z,100783.09
2022-07-30T10:50:11.708Z,100784.33
2022-07-30T10:52:43.687Z,100783.74
2022-07-30T10:55:15.755Z,100789.02
2022-07-30T10:58:07.401Z,100790.60
2022-07-30T11:00:56.101Z,100790.41
2022-07-30T11:03:40.792Z,100783.17
2022-07-30T11:06:15.948Z,100780.01
2022-07-30T11:08:49.453Z,100782.83
2022-07-30T11:11:59.210Z,100785.31
2022-07-30T11:14:09.224Z,100786.38
2022-07-30T11:16:37.348Z,100787.43
2022-07-30T11:19:53.145Z,100785.48
2022-07-30T11:22:26.513Z,100783.56
2022-07-30T11:24:54.750Z,100783.73
2022-07-30T11:27:38.589Z,100781.27
2022-07-30T11:30:15.571Z,100783.94
2022-07-30T11:32:49.054Z,100783.59
2022-07-30T11:35:32.328Z,100781.81
2022-07-30T11:38:05.206Z,100786.40
2022-07-30T11:40:45.350Z,100788.70
2022-07-30T11:43:17.689Z,100794.35
2022-07-30T11:45:51.123Z,100798.05
2022-07-30T11:48:20.810Z,100795.20
2022-07-30T11:50:49.007Z,100791.83
2022-07-30T11:53:19.651Z,100790.03
2022-07-30T11:56:02.229Z,100791.60
2022-07-30T11:58:35.923Z,100795.48
2022-07-30T12:01:11.793Z,100794.58
2022-07-30T12:03:46.243Z,100795.27
2022-07-30T12:06:20.276Z,100792.24
2022-07-30T12:08:53.945Z,100793.96
2022-07-30T12:11:25.277Z,100799.34
2022-07-30T12:13:59.762Z,100797.84
2022-07-30T12:16:29.406Z,100800.43
2022-07-30T12:19:02.724Z,100799.80
2022-07-30T12:21:30.832Z,100802.78
2022-07-30T12:24:01.596Z,100803.94
2022-07-30T12:26:34.423Z,100807.63
2022-07-30T12:29:07.345Z,100809.89
2022-07-30T12:31:38.538Z,100809.01
2022-07-30T12:34:26.496Z,100809.16
2022-07-30T12:36:55.254Z,100806.48
2022-07-30T12:39:26.174Z,100802.41
2022-07-30T12:41:57.973Z,100802.16
2022-07-30T12:44:39.568Z,100799.86
2022-07-30T12:47:25.731Z,100802.95
2022-07-30T12:49:55.793Z,100802.17
2022-07-30T12:52:29.303Z,100801.29
2022-07-30T12:55:10.475Z,100797.94
2022-07-30T12:57:53.530Z,100804.45
2022-07-30T13:00:32.798Z,100799.52
2022-07-30T13:03:00.656Z,100803.57
2022-07-30T13:05:55.473Z,100798.38
2022-07-30T13:08:56.381Z,100800.14
2022-07-30T13:11:27.862Z,100798.75
2022-07-30T13:13:55.573Z,100801.77
2022-07-30T13:16:23.469Z,100796.52
2022-07-30T13:18:51.182Z,100796.20
2022-07-30T13:21:18.885Z,100796.01
2022-07-30T13:23:46.897Z,100796.02
2022-07-30T13:26:16.200Z,100795.80
2022-07-30T13:28:46.622Z,100796.55
2022-07-30T13:31:14.645Z,100796.40
2022-07-30T13:33:42.640Z,100796.41
2022-07-30T13:36:10.611Z,100795.02
2022-07-30T13:38:38.783Z,100795.36
2022-07-30T13:41:07.438Z,100788.86
2022-07-30T13:43:36.139Z,100788.84
2022-07-30T13:46:05.367Z,100784.98
2022-07-30T13:48:33.428Z,100787.29
2022-07-30T13:51:02.340Z,100787.50
2022-07-30T13:53:30.412Z,100787.84
2022-07-30T13:56:01.924Z,100784.50
2022-07-30T13:58:35.448Z,100786.41
2022-07-30T14:01:07.103Z,100784.98
2022-07-30T14:03:35.484Z,100786.04
2022-07-30T14:06:10.828Z,100788.68
2022-07-30T14:08:39.428Z,100785.67
2022-07-30T14:11:07.625Z,100785.82
2022-07-30T14:13:35.721Z,100787.20
2022-07-30T14:16:04.369Z,100786.88
2022-07-30T14:18:32.248Z,100783.18
2022-07-30T14:21:00.915Z,100784.02
2022-07-30T14:23:29.312Z,100779.05
2022-07-30T14:25:57.095Z,100779.06
2022-07-30T14:28:25.523Z,100775.33
2022-07-30T14:30:53.297Z,100771.13
2022-07-30T14:33:21.184Z,100773.28
2022-07-30T14:35:49.075Z,100774.48
2022-07-30T14:38:18.375Z,100773.28
2022-07-30T14:40:46.919Z,100771.16
2022-07-30T14:43:14.838Z,100770.65
2022-07-30T14:45:42.619Z,100769.61
2022-07-30T14:48:10.314Z,100766.46
2022-07-30T14:50:56.950Z,100764.37
2022-07-30T14:53:25.866Z,100767.02
2022-07-30T14:55:53.699Z,100766.86
2022-07-30T14:58:21.398Z,100767.55
2022-07-30T15:00:49.619Z,100765.43
2022-07-30T15:03:18.038Z,100765.48
2022-07-30T15:05:50.357Z,100765.96
2022-07-30T15:08:20.726Z,100764.21
2022-07-30T15:10:48.482Z,100769.11
2022-07-30T15:13:16.508Z,100762.41
2022-07-30T15:15:46.040Z,100763.28
2022-07-30T15:18:14.359Z,100764.84
2022-07-30T15:20:42.159Z,100761.66
2022-07-30T15:23:13.372Z,100764.83
2022-07-30T15:25:42.372Z,100769.20
2022-07-30T15:28:10.195Z,100763.38
2022-07-30T15:30:38.399Z,100761.98
2022-07-30T15:33:06.249Z,100763.56
2022-07-30T15:35:36.472Z,100761.79
2022-07-30T15:38:04.486Z,100763.41
2022-07-30T15:40:32.273Z,100762.67
2022-07-30T15:42:59.983Z,100764.79
2022-07-30T15:45:28.011Z,100763.04
2022-07-30T15:47:55.873Z,100762.16
2022-07-30T15:50:23.776Z,100760.02
2022-07-30T15:52:51.529Z,100762.15
2022-07-30T15:55:19.274Z,100761.27
2022-07-30T15:57:48.404Z,100764.44
2022-07-30T16:00:16.679Z,100760.39
2022-07-30T16:02:44.752Z,100765.27
2022-07-30T16:05:14.193Z,100763.49
2022-07-30T16:07:43.195Z,100766.66
2022-07-30T16:10:11.129Z,100769.23
2022-07-30T16:12:39.741Z,100772.55
2022-07-30T16:15:09.090Z,100769.14
2022-07-30T16:17:37.058Z,100766.83
2022-07-30T16:20:06.326Z,100770.55
2022-07-30T16:22:34.163Z,100772.45
2022-07-30T16:25:01.980Z,100770.87
2022-07-30T16:27:29.842Z,100772.61
2022-07-30T16:29:57.659Z,100777.15
2022-07-30T16:32:25.414Z,100776.77
2022-07-30T16:34:53.180Z,100774.11
2022-07-30T16:37:21.008Z,100770.92
2022-07-30T16:39:48.894Z,100769.69
2022-07-30T16:42:16.867Z,100766.17
2022-07-30T16:44:44.675Z,100773.57
2022-07-30T16:47:13.974Z,100775.16
2022-07-30T16:49:41.901Z,100778.73
2022-07-30T16:52:09.782Z,100780.67
2022-07-30T16:54:37.630Z,100781.19
2022-07-30T16:57:10.613Z,100781.39
2022-07-30T16:59:39.087Z,100782.45
2022-07-30T17:02:11.671Z,100785.60
2022-07-30T17:04:39.494Z,100781.75
2022-07-30T17:07:07.370Z,100781.77
2022-07-30T17:09:36.393Z,100780.90
2022-07-30T17:12:09.595Z,100779.14
2022-07-30T17:14:42.060Z,100783.02
2022-07-30T17:17:14.271Z,100784.56
2022-07-30T17:19:43.354Z,100790.21
2022-07-30T17:22:11.201Z,100788.42
2022-07-30T17:24:39.164Z,100793.70
2022-07-30T17:27:07.236Z,100794.55
2022-07-30T17:29:48.311Z,100796.27
2022-07-30T17:32:20.595Z,100797.16
2022-07-30T17:34:49.497Z,100797.85
2022-07-30T17:37:17.676Z,100800.80
2022-07-30T17:40:22.979Z,100801.33
2022-07-30T17:42:33.732Z,100800.44
2022-07-30T17:45:01.579Z,100800.79
2022-07-30T17:47:29.396Z,100798.82
2022-07-30T17:49:57.222Z,100801.46
2022-07-30T17:52:26.735Z,100800.23
2022-07-30T17:54:55.272Z,100798.65
2022-07-30T17:57:23.440Z,100799.52
2022-07-30T17:59:51.276Z,100800.53
2022-07-30T18:02:20.697Z,100802.13
2022-07-30T18:04:56.563Z,100803.30
2022-07-30T18:07:24.780Z,100804.54
2022-07-30T18:09:52.926Z,100805.37
2022-07-30T18:12:20.827Z,100812.41
2022-07-30T18:14:48.631Z,100812.90
2022-07-30T18:17:16.405Z,100814.13
2022-07-30T18:19:44.356Z,100817.12
2022-07-30T18:22:14.730Z,100819.24
2022-07-30T18:24:44.144Z,100822.09
2022-07-30T18:27:12.977Z,100824.89
2022-07-30T18:29:40.945Z,100827.89
2022-07-30T18:32:09.150Z,100826.64
2022-07-30T18:34:37.494Z,100828.41
2022-07-30T18:37:05.509Z,100831.20
2022-07-30T18:39:33.225Z,100833.30
2022-07-30T18:42:02.412Z,100835.92
2022-07-30T18:44:31.041Z,100838.56
2022-07-30T18:46:59.231Z,100838.93
2022-07-30T18:49:36.721Z,100836.48
2022-07-30T18:52:07.291Z,100838.41
2022-07-30T18:54:37.246Z,100838.78
2022-07-30T18:57:05.544Z,100840.36
2022-07-30T18:59:33.360Z,100843.73
2022-07-30T19:02:02.077Z,100848.50
2022-07-30T19:04:31.529Z,100844.80
2022-07-30T19:06:59.570Z,100847.48
2022-07-30T19:09:27.644Z,100845.88
2022-07-30T19:11:55.365Z,100850.98
2022-07-30T19:14:23.119Z,100847.67
2022-07-30T19:16:50.911Z,100855.44
2022-07-30T19:19:20.969Z,100858.09
2022-07-30T19:21:49.191Z,100858.10
2022-07-30T19:24:17.114Z,100862.33
2022-07-30T19:26:45.089Z,100863.15
2022-07-30T19:29:12.968Z,100863.54
2022-07-30T19:31:44.051Z,100862.50
2022-07-30T19:34:11.852Z,100860.91
2022-07-30T19:36:39.989Z,100864.46
2022-07-30T19:39:08.757Z,100864.45
2022-07-30T19:41:41.421Z,100871.16
2022-07-30T19:44:09.893Z,100871.01
2022-07-30T19:46:39.139Z,100872.77
2022-07-30T19:49:12.332Z,100872.94
2022-07-30T19:52:10.708Z,100875.89
2022-07-30T19:54:28.250Z,100875.14
2022-07-30T19:56:55.966Z,100876.00
2022-07-30T19:59:37.080Z,100877.06
2022-07-30T20:02:13.750Z,100879.86
2022-07-30T20:04:43.597Z,100877.94
2022-07-30T20:07:11.910Z,100878.63
2022-07-30T20:09:42.902Z,100883.38
2022-07-30T20:12:12.884Z,100883.53
2022-07-30T20:14:43.478Z,100879.65
2022-07-30T20:17:11.944Z,100878.23
2022-07-30T20:19:48.504Z,100878.73
2022-07-30T20:22:16.820Z,100880.80
2022-07-30T20:24:47.970Z,100879.93
2022-07-30T20:27:38.463Z,100878.35
2022-07-30T20:30:06.449Z,100880.80
2022-07-30T20:32:36.333Z,100878.49
2022-07-30T20:35:04.504Z,100877.07
2022-07-30T20:37:33.249Z,100877.39
2022-07-30T20:40:10.192Z,100877.90
2022-07-30T20:42:38.795Z,100878.39
2022-07-30T20:45:07.361Z,100878.95
2022-07-30T20:47:38.893Z,100880.67
2022-07-30T20:50:11.614Z,100879.59
2022-07-30T20:52:46.709Z,100879.06
2022-07-30T20:55:16.942Z,100875.88
2022-07-30T20:58:00.423Z,100875.50
2022-07-30T21:00:34.814Z,100874.60
2022-07-30T21:03:03.617Z,100874.96
2022-07-30T21:05:31.771Z,100871.61
2022-07-30T21:07:59.957Z,100877.06
2022-07-30T21:10:28.702Z,100874.95
2022-07-30T21:12:58.704Z,100872.65
2022-07-30T21:15:33.034Z,100871.59
2022-07-30T21:18:02.115Z,100876.19
2022-07-30T21:20:31.859Z,100874.05
2022-07-30T21:23:04.533Z,100876.14
2022-07-30T21:25:33.491Z,100871.74
2022-07-30T21:28:02.749Z,100871.59
2022-07-30T21:30:32.735Z,100869.11
2022-07-30T21:33:00.780Z,100866.63
2022-07-30T21:35:32.186Z,100863.98
2022-07-30T21:38:00.280Z,100863.29
2022-07-30T21:40:28.666Z,100864.86
2022-07-30T21:42:57.064Z,100867.16
2022-07-30T21:45:27.601Z,100863.11
2022-07-30T21:48:07.467Z,100863.61
2022-07-30T21:50:38.199Z,100860.26
2022-07-30T21:53:05.911Z,100862.71
2022-07-30T21:55:52.277Z,100860.97
2022-07-30T21:58:26.270Z,100861.85
2022-07-30T22:00:55.525Z,100859.23
2022-07-30T22:04:03.989Z,100854.48
2022-07-30T22:06:12.670Z,100852.38
2022-07-30T22:08:40.859Z,100849.16
2022-07-30T22:11:09.171Z,100851.98
2022-07-30T22:13:51.351Z,100849.69
2022-07-30T22:16:21.939Z,100849.52
2022-07-30T22:18:51.075Z,100848.10
2022-07-30T22:21:20.016Z,100849.34
2022-07-30T22:23:54.751Z,100843.89
2022-07-30T22:26:26.602Z,100841.60
2022-07-30T22:28:54.897Z,100839.11
2022-07-30T22:31:22.620Z,100838.08
2022-07-30T22:33:51.033Z,100836.35
2022-07-30T22:36:24.655Z,100836.04
2022-07-30T22:41:41.064Z,100832.14
2022-07-30T22:44:10.290Z,100826.86
2022-07-30T22:46:41.021Z,100828.62
2022-07-30T22:49:23.724Z,100830.20
2022-07-30T22:52:06.525Z,100826.52
2022-07-30T22:54:50.966Z,100823.54
2022-07-30T22:57:22.919Z,100821.44
2022-07-30T23:00:00.360Z,100824.09
2022-07-30T23:02:28.704Z,100821.80
2022-07-30T23:04:56.710Z,100821.94
2022-07-30T23:07:35.944Z,100817.67
2022-07-30T23:10:17.390Z,100820.11
2022-07-30T23:12:33.010Z,100831.41
2022-07-30T23:12:58.997Z,100819.38
2022-07-30T23:15:26.957Z,100819.19
2022-07-30T23:17:54.809Z,100819.52
2022-07-30T23:20:22.808Z,100820.23
2022-07-30T23:22:50.967Z,100823.05
2022-07-30T23:25:19.092Z,100819.73
2022-07-30T23:27:46.920Z,100820.23
2022-07-30T23:30:15.368Z,100821.33
2022-07-30T23:32:43.070Z,100820.44
2022-07-30T23:35:11.945Z,100820.25
2022-07-30T23:37:48.217Z,100820.59
2022-07-30T23:40:19.075Z,100821.09
2022-07-30T23:42:47.802Z,100820.73
2022-07-30T23:45:15.528Z,100818.11
2022-07-30T23:47:57.292Z,100816.36
2022-07-30T23:50:32.506Z,100822.17
2022-07-30T23:53:01.636Z,100820.77
2022-07-30T23:55:31.183Z,100824.64
2022-07-30T23:57:58.952Z,100821.99
